createdAt,value
2022-07-29T00:01:42.591Z,54.93
2022-07-29T00:04:10.124Z,54.87
2022-07-29T00:06:37.528Z,54.96
2022-07-29T00:09:05.107Z,55.11
2022-07-29T00:11:32.492Z,55.35
2022-07-29T00:13:59.913Z,55.04
2022-07-29T00:16:27.300Z,55.38
2022-07-29T00:18:54.751Z,55.60
2022-07-29T00:21:22.070Z,55.39
2022-07-29T00:23:49.463Z,55.90
2022-07-29T00:26:16.832Z,55.64
2022-07-29T00:28:44.260Z,55.84
2022-07-29T00:31:11.863Z,56.11
2022-07-29T00:33:39.286Z,56.35
2022-07-29T00:36:07.050Z,55.92
2022-07-29T00:38:34.424Z,55.79
2022-07-29T00:41:01.813Z,56.13
2022-07-29T00:43:29.218Z,56.13
2022-07-29T00:45:56.623Z,55.81
2022-07-29T00:48:24.080Z,55.85
2022-07-29T00:50:52.291Z,56.46
2022-07-29T00:53:21.346Z,56.53
2022-07-29T00:55:49.532Z,56.46
2022-07-29T00:58:17.022Z,56.56
2022-07-29T01:00:45.568Z,56.67
2022-07-29T01:03:13.432Z,57.06
2022-07-29T01:05:49.814Z,57.54
2022-07-29T01:08:19.819Z,57.67
2022-07-29T01:10:48.024Z,57.55
2022-07-29T01:13:17.152Z,57.49
2022-07-29T01:16:14.016Z,57.22
2022-07-29T01:18:46.810Z,57.55
2022-07-29T01:21:35.300Z,57.50
2022-07-29T01:24:05.636Z,57.77
2022-07-29T01:26:55.505Z,57.87
2022-07-29T01:29:40.772Z,58.12
2022-07-29T01:32:28.043Z,57.86
2022-07-29T01:35:10.899Z,57.91
2022-07-29T01:37:48.018Z,57.72
2022-07-29T01:40:30.630Z,57.87
2022-07-29T01:43:01.275Z,57.93
2022-07-29T01:45:38.363Z,58.14
2022-07-29T01:48:17.443Z,58.36
2022-07-29T01:51:29.115Z,58.46
2022-07-29T01:54:30.351Z,58.28
2022-07-29T01:56:59.827Z,58.53
2022-07-29T01:59:28.601Z,58.59
2022-07-29T02:01:59.074Z,58.31
2022-07-29T02:04:30.332Z,58.59
2022-07-29T02:07:02.938Z,58.57
2022-07-29T02:09:34.222Z,59.20
2022-07-29T02:12:04.265Z,58.90
2022-07-29T02:14:38.067Z,59.29
2022-07-29T02:17:05.696Z,59.30
2022-07-29T02:19:35.243Z,59.37
2022-07-29T02:22:03.831Z,59.56
2022-07-29T02:24:32.181Z,59.58
2022-07-29T02:27:01.895Z,59.80
2022-07-29T02:29:31.297Z,59.90
2022-07-29T02:32:01.939Z,59.85
2022-07-29T02:34:30.513Z,59.92
2022-07-29T02:36:57.933Z,59.99
2022-07-29T02:39:29.718Z,60.24
2022-07-29T02:42:03.987Z,60.32
2022-07-29T02:44:34.786Z,60.38
2022-07-29T02:47:42.086Z,60.37
2022-07-29T02:50:21.325Z,60.70
2022-07-29T02:53:00.030Z,60.63
2022-07-29T02:55:31.549Z,61.03
2022-07-29T02:58:29.460Z,61.27
2022-07-29T03:01:29.870Z,61.03
2022-07-29T03:03:57.592Z,61.11
2022-07-29T03:06:38.077Z,60.94
2022-07-29T03:09:13.523Z,61.35
2022-07-29T03:11:49.574Z,61.12
2022-07-29T03:14:20.575Z,61.04
2022-07-29T03:16:49.456Z,61.08
2022-07-29T03:19:17.339Z,61.61
2022-07-29T03:21:44.785Z,61.33
2022-07-29T03:24:24.898Z,61.65
2022-07-29T03:26:52.381Z,61.75
2022-07-29T03:29:19.947Z,61.61
2022-07-29T03:31:47.357Z,61.96
2022-07-29T03:34:16.337Z,61.72
2022-07-29T03:36:44.161Z,62.09
2022-07-29T03:39:15.191Z,62.13
2022-07-29T03:41:45.355Z,62.13
2022-07-29T03:44:15.085Z,62.22
2022-07-29T03:46:44.273Z,62.02
2022-07-29T03:49:15.336Z,62.31
2022-07-29T03:51:43.210Z,62.05
2022-07-29T03:54:10.838Z,62.34
2022-07-29T03:56:41.680Z,62.08
2022-07-29T03:59:10.570Z,62.09
2022-07-29T04:01:39.947Z,62.34
2022-07-29T04:04:07.507Z,62.57
2022-07-29T04:06:43.283Z,62.60
2022-07-29T04:09:11.923Z,62.78
2022-07-29T04:11:59.262Z,63.21
2022-07-29T04:14:30.778Z,63.33
2022-07-29T04:16:58.171Z,63.19
2022-07-29T04:19:25.484Z,63.46
2022-07-29T04:21:52.983Z,63.73
2022-07-29T04:24:20.662Z,63.62
2022-07-29T04:26:48.771Z,63.60
2022-07-29T04:29:16.650Z,63.50
2022-07-29T04:31:44.923Z,63.71
2022-07-29T04:34:13.611Z,63.74
2022-07-29T04:36:41.246Z,63.82
2022-07-29T04:39:09.055Z,63.73
2022-07-29T04:41:36.964Z,63.76
2022-07-29T04:44:12.437Z,64.04
2022-07-29T04:46:40.257Z,64.04
2022-07-29T04:49:07.877Z,63.83
2022-07-29T04:51:35.943Z,64.10
2022-07-29T04:54:03.576Z,63.94
2022-07-29T04:56:31.154Z,64.29
2022-07-29T04:58:58.709Z,64.12
2022-07-29T05:01:26.483Z,64.38
2022-07-29T05:03:58.346Z,64.42
2022-07-29T05:06:27.661Z,64.64
2022-07-29T05:08:55.031Z,64.53
2022-07-29T05:11:24.969Z,64.60
2022-07-29T05:13:54.666Z,64.45
2022-07-29T05:16:22.446Z,64.67
2022-07-29T05:18:49.862Z,64.68
2022-07-29T05:21:17.173Z,64.83
2022-07-29T05:23:44.571Z,65.07
2022-07-29T05:26:12.005Z,65.00
2022-07-29T05:28:39.658Z,64.95
2022-07-29T05:31:07.120Z,64.61
2022-07-29T05:33:37.113Z,60.96
2022-07-29T05:36:08.558Z,57.71
2022-07-29T05:38:39.000Z,55.57
2022-07-29T05:41:07.597Z,54.24
2022-07-29T05:43:35.025Z,53.18
2022-07-29T05:46:02.521Z,52.23
2022-07-29T05:48:29.998Z,51.52
2022-07-29T05:50:57.555Z,51.13
2022-07-29T05:53:25.335Z,50.82
2022-07-29T05:55:53.320Z,50.46
2022-07-29T05:58:20.723Z,50.04
2022-07-29T06:00:48.380Z,49.83
2022-07-29T06:03:15.872Z,49.56
2022-07-29T06:05:43.185Z,49.04
2022-07-29T06:08:10.585Z,49.14
2022-07-29T06:10:38.557Z,48.93
2022-07-29T06:13:06.296Z,48.77
2022-07-29T06:15:34.428Z,48.66
2022-07-29T06:18:02.097Z,48.38
2022-07-29T06:20:33.174Z,48.28
2022-07-29T06:23:01.143Z,48.31
2022-07-29T06:25:33.289Z,48.18
2022-07-29T06:28:00.625Z,48.07
2022-07-29T06:30:29.702Z,48.17
2022-07-29T06:32:57.254Z,48.09
2022-07-29T06:35:38.591Z,48.16
2022-07-29T06:38:30.653Z,47.98
2022-07-29T06:41:08.609Z,48.00
2022-07-29T06:43:52.523Z,47.95
2022-07-29T06:46:23.209Z,48.01
2022-07-29T06:48:51.879Z,47.89
2022-07-29T06:51:22.486Z,47.92
2022-07-29T06:54:00.441Z,47.87
2022-07-29T06:56:38.407Z,48.02
2022-07-29T06:59:08.318Z,47.80
2022-07-29T07:01:39.415Z,47.98
2022-07-29T07:04:06.943Z,47.96
2022-07-29T07:06:34.337Z,47.78
2022-07-29T07:09:01.875Z,47.80
2022-07-29T07:11:29.539Z,47.87
2022-07-29T07:14:02.290Z,47.73
2022-07-29T07:16:31.981Z,48.00
2022-07-29T07:18:59.468Z,47.79
2022-07-29T07:21:27.071Z,47.95
2022-07-29T07:23:57.565Z,47.81
2022-07-29T07:26:24.913Z,47.87
2022-07-29T07:28:52.497Z,47.89
2022-07-29T07:31:20.035Z,47.71
2022-07-29T07:33:47.600Z,47.92
2022-07-29T07:36:15.011Z,47.76
2022-07-29T07:38:42.404Z,48.14
2022-07-29T07:41:09.750Z,47.67
2022-07-29T07:43:37.162Z,47.74
2022-07-29T07:46:04.618Z,47.80
2022-07-29T07:48:32.107Z,47.75
2022-07-29T07:50:59.476Z,47.77
2022-07-29T07:53:27.060Z,47.94
2022-07-29T07:56:11.824Z,47.80
2022-07-29T07:58:40.229Z,47.74
2022-07-29T08:01:08.001Z,47.77
2022-07-29T08:03:36.093Z,47.87
2022-07-29T08:06:04.303Z,47.86
2022-07-29T08:08:31.757Z,47.83
2022-07-29T08:11:02.252Z,47.90
2022-07-29T08:13:33.117Z,47.97
2022-07-29T08:16:02.428Z,47.99
2022-07-29T08:18:31.955Z,47.90
2022-07-29T08:20:59.975Z,47.83
2022-07-29T08:23:31.595Z,47.84
2022-07-29T08:26:02.006Z,47.73
2022-07-29T08:28:29.390Z,48.11
2022-07-29T08:30:56.747Z,48.02
2022-07-29T08:33:24.124Z,48.17
2022-07-29T08:35:51.524Z,48.05
2022-07-29T08:38:18.878Z,47.79
2022-07-29T08:40:47.483Z,47.80
2022-07-29T08:43:15.214Z,47.64
2022-07-29T08:45:51.216Z,48.03
2022-07-29T08:48:23.890Z,47.87
2022-07-29T08:50:58.572Z,47.99
2022-07-29T08:53:29.752Z,48.03
2022-07-29T08:55:58.463Z,48.46
2022-07-29T08:58:27.750Z,47.82
2022-07-29T09:00:57.947Z,47.64
2022-07-29T09:03:28.438Z,48.25
2022-07-29T09:05:56.334Z,47.56
2022-07-29T09:08:24.283Z,47.08
2022-07-29T09:10:52.283Z,46.05
2022-07-29T09:13:19.732Z,45.70
2022-07-29T09:15:47.114Z,46.24
2022-07-29T09:18:33.886Z,46.54
2022-07-29T09:21:20.175Z,46.99
2022-07-29T09:24:05.484Z,47.41
2022-07-29T09:26:34.331Z,47.96
2022-07-29T09:29:08.227Z,47.27
2022-07-29T09:31:38.047Z,47.24
2022-07-29T09:34:06.920Z,47.12
2022-07-29T09:36:45.775Z,47.08
2022-07-29T09:39:15.385Z,45.87
2022-07-29T09:41:55.597Z,46.48
2022-07-29T09:44:24.547Z,46.30
2022-07-29T09:47:09.407Z,46.28
2022-07-29T09:49:51.846Z,46.17
2022-07-29T09:52:19.819Z,46.55
2022-07-29T09:54:47.272Z,47.70
2022-07-29T09:57:44.708Z,47.22
2022-07-29T10:00:18.987Z,47.32
2022-07-29T10:02:47.997Z,46.67
2022-07-29T10:05:26.376Z,44.94
2022-07-29T10:08:03.218Z,45.49
2022-07-29T10:10:34.776Z,45.46
2022-07-29T10:13:12.201Z,46.14
2022-07-29T10:15:45.304Z,45.24
2022-07-29T10:18:14.300Z,44.17
2022-07-29T10:20:42.257Z,44.96
2022-07-29T10:23:10.541Z,46.76
2022-07-29T10:25:38.127Z,46.23
2022-07-29T10:28:07.684Z,46.80
2022-07-29T10:30:35.445Z,46.91
2022-07-29T10:33:17.959Z,47.12
2022-07-29T10:36:18.892Z,47.16
2022-07-29T10:39:15.656Z,44.87
2022-07-29T10:41:58.982Z,41.52
2022-07-29T10:44:28.299Z,42.05
2022-07-29T10:46:56.918Z,40.11
2022-07-29T10:52:15.587Z,43.82
2022-07-29T10:54:48.833Z,42.85
2022-07-29T11:00:27.526Z,45.39
2022-07-29T11:02:57.525Z,44.06
2022-07-29T11:05:32.115Z,37.00
2022-07-29T11:08:21.089Z,38.51
2022-07-29T11:11:15.901Z,40.06
2022-07-29T11:13:48.924Z,37.63
2022-07-29T11:16:17.429Z,40.06
2022-07-29T11:19:13.448Z,42.11
2022-07-29T11:21:55.273Z,36.69
2022-07-29T11:24:30.009Z,36.57
2022-07-29T11:27:09.963Z,38.51
2022-07-29T11:29:55.483Z,39.75
2022-07-29T11:32:24.960Z,37.88
2022-07-29T11:35:18.111Z,40.18
2022-07-29T11:37:52.495Z,41.91
2022-07-29T11:40:23.910Z,37.87
2022-07-29T11:42:52.410Z,37.34
2022-07-29T11:45:41.580Z,38.66
2022-07-29T11:48:29.521Z,43.21
2022-07-29T11:51:00.358Z,43.01
2022-07-29T11:53:28.698Z,39.40
2022-07-29T11:56:01.060Z,42.61
2022-07-29T11:58:30.798Z,42.69
2022-07-29T12:03:46.608Z,43.09
2022-07-29T12:06:18.296Z,42.84
2022-07-29T12:08:47.358Z,43.84
2022-07-29T12:11:22.666Z,42.89
2022-07-29T12:13:51.884Z,44.04
2022-07-29T12:16:25.531Z,44.68
2022-07-29T12:19:00.571Z,44.19
2022-07-29T12:21:54.060Z,38.83
2022-07-29T12:24:26.887Z,41.68
2022-07-29T12:27:00.682Z,43.18
2022-07-29T12:29:34.857Z,43.65
2022-07-29T12:32:05.369Z,44.65
2022-07-29T12:34:33.497Z,44.82
2022-07-29T12:37:01.943Z,44.93
2022-07-29T12:39:29.499Z,44.71
2022-07-29T12:42:04.380Z,43.82
2022-07-29T12:44:52.336Z,45.30
2022-07-29T12:47:20.845Z,45.35
2022-07-29T12:49:48.786Z,39.52
2022-07-29T12:52:33.323Z,37.96
2022-07-29T12:55:01.865Z,35.33
2022-07-29T12:57:30.987Z,36.02
2022-07-29T13:00:06.016Z,38.96
2022-07-29T13:02:33.604Z,41.45
2022-07-29T13:05:02.742Z,42.32
2022-07-29T13:07:54.267Z,40.31
2022-07-29T13:10:24.618Z,35.02
2022-07-29T13:13:09.802Z,38.18
2022-07-29T13:15:39.490Z,39.33
2022-07-29T13:18:27.507Z,36.70
2022-07-29T13:20:55.284Z,38.56
2022-07-29T13:23:23.232Z,40.81
2022-07-29T13:25:50.545Z,39.80
2022-07-29T13:28:18.480Z,36.49
2022-07-29T13:30:45.967Z,39.09
2022-07-29T13:33:13.602Z,41.74
2022-07-29T13:35:40.968Z,43.19
2022-07-29T13:38:08.384Z,44.27
2022-07-29T13:40:36.398Z,40.29
2022-07-29T13:43:03.795Z,43.16
2022-07-29T13:45:31.468Z,44.33
2022-07-29T13:48:01.892Z,38.75
2022-07-29T13:50:29.232Z,39.02
2022-07-29T13:52:57.345Z,42.14
2022-07-29T13:55:24.787Z,42.62
2022-07-29T13:57:53.274Z,40.23
2022-07-29T14:00:20.997Z,38.40
2022-07-29T14:02:48.583Z,34.40
2022-07-29T14:05:15.938Z,37.02
2022-07-29T14:07:43.282Z,38.45
2022-07-29T14:10:10.972Z,37.60
2022-07-29T14:12:39.079Z,35.20
2022-07-29T14:15:06.877Z,37.65
2022-07-29T14:17:35.499Z,38.31
2022-07-29T14:20:03.499Z,37.67
2022-07-29T14:22:31.040Z,38.92
2022-07-29T14:24:58.435Z,34.63
2022-07-29T14:27:37.441Z,34.97
2022-07-29T14:30:06.954Z,32.95
2022-07-29T14:32:34.322Z,33.78
2022-07-29T14:35:01.768Z,33.02
2022-07-29T14:37:39.084Z,32.40
2022-07-29T14:40:08.856Z,33.61
2022-07-29T14:42:37.267Z,32.23
2022-07-29T14:45:06.725Z,34.63
2022-07-29T14:47:35.585Z,38.45
2022-07-29T14:50:04.103Z,32.64
2022-07-29T14:52:31.515Z,34.17
2022-07-29T14:54:58.992Z,34.17
2022-07-29T14:57:27.421Z,35.03
2022-07-29T14:59:54.989Z,33.98
2022-07-29T15:02:23.742Z,35.18
2022-07-29T15:04:55.530Z,34.29
2022-07-29T15:07:22.982Z,34.32
2022-07-29T15:09:50.404Z,35.00
2022-07-29T15:12:17.609Z,34.83
2022-07-29T15:14:45.798Z,34.79
2022-07-29T15:17:13.327Z,34.96
2022-07-29T15:19:45.106Z,35.80
2022-07-29T15:22:12.601Z,35.29
2022-07-29T15:24:39.929Z,35.10
2022-07-29T15:27:07.403Z,35.15
2022-07-29T15:29:34.807Z,35.51
2022-07-29T15:32:02.693Z,34.84
2022-07-29T15:34:30.313Z,34.71
2022-07-29T15:36:57.757Z,34.14
2022-07-29T15:39:25.079Z,34.58
2022-07-29T15:41:52.870Z,34.22
2022-07-29T15:44:21.277Z,34.41
2022-07-29T15:47:05.666Z,33.96
2022-07-29T15:49:48.637Z,34.44
2022-07-29T15:52:25.187Z,34.25
2022-07-29T15:54:55.435Z,34.37
2022-07-29T15:57:23.530Z,34.02
2022-07-29T15:59:51.950Z,33.97
2022-07-29T16:02:19.682Z,33.91
2022-07-29T16:04:47.293Z,34.09
2022-07-29T16:07:15.213Z,34.47
2022-07-29T16:09:43.557Z,34.33
2022-07-29T16:12:15.480Z,33.88
2022-07-29T16:14:44.453Z,33.61
2022-07-29T16:17:14.763Z,33.76
2022-07-29T16:19:43.613Z,34.19
2022-07-29T16:22:11.717Z,33.98
2022-07-29T16:24:39.621Z,34.06
2022-07-29T16:27:07.513Z,34.02
2022-07-29T16:29:37.034Z,34.08
2022-07-29T16:32:06.191Z,34.00
2022-07-29T16:34:33.668Z,34.83
2022-07-29T16:37:01.371Z,34.66
2022-07-29T16:39:28.886Z,34.44
2022-07-29T16:42:00.193Z,33.93
2022-07-29T16:44:29.133Z,34.26
2022-07-29T16:46:58.917Z,33.70
2022-07-29T16:49:28.045Z,34.08
2022-07-29T16:51:55.581Z,34.28
2022-07-29T16:54:23.290Z,34.01
2022-07-29T16:56:50.702Z,34.10
2022-07-29T16:59:18.177Z,34.95
2022-07-29T17:01:45.538Z,34.90
2022-07-29T17:04:14.959Z,35.15
2022-07-29T17:06:42.646Z,35.60
2022-07-29T17:09:12.003Z,35.35
2022-07-29T17:11:52.402Z,35.67
2022-07-29T17:14:25.219Z,35.19
2022-07-29T17:17:02.997Z,34.96
2022-07-29T17:19:33.895Z,34.58
2022-07-29T17:22:11.700Z,34.27
2022-07-29T17:24:42.191Z,34.43
2022-07-29T17:27:10.477Z,34.76
2022-07-29T17:29:39.043Z,35.05
2022-07-29T17:32:09.142Z,35.40
2022-07-29T17:34:41.100Z,35.25
2022-07-29T17:37:11.067Z,35.35
2022-07-29T17:39:41.199Z,35.74
2022-07-29T17:42:14.213Z,35.85
2022-07-29T17:44:41.825Z,35.63
2022-07-29T17:47:16.148Z,35.80
2022-07-29T17:49:44.928Z,35.76
2022-07-29T17:52:12.450Z,36.37
2022-07-29T17:54:39.796Z,36.31
2022-07-29T17:57:07.199Z,36.56
2022-07-29T17:59:34.568Z,36.20
2022-07-29T18:02:02.027Z,36.50
2022-07-29T18:04:31.392Z,36.51
2022-07-29T18:06:59.137Z,36.51
2022-07-29T18:09:26.704Z,37.04
2022-07-29T18:11:54.013Z,37.29
2022-07-29T18:14:21.369Z,37.24
2022-07-29T18:16:48.784Z,37.67
2022-07-29T18:19:16.283Z,37.14
2022-07-29T18:21:51.903Z,37.48
2022-07-29T18:24:25.519Z,37.64
2022-07-29T18:26:53.597Z,37.31
2022-07-29T18:29:21.348Z,38.09
2022-07-29T18:31:48.759Z,38.16
2022-07-29T18:34:17.109Z,38.44
2022-07-29T18:36:45.854Z,38.41
2022-07-29T18:39:20.443Z,38.91
2022-07-29T18:41:50.649Z,39.37
2022-07-29T18:44:22.108Z,39.98
2022-07-29T18:46:51.533Z,40.63
2022-07-29T18:49:19.472Z,40.76
2022-07-29T18:51:47.004Z,40.90
2022-07-29T18:54:14.711Z,41.37
2022-07-29T18:56:42.092Z,41.27
2022-07-29T18:59:10.508Z,41.35
2022-07-29T19:01:38.176Z,41.84
2022-07-29T19:04:05.794Z,42.29
2022-07-29T19:06:33.294Z,42.31
2022-07-29T19:09:00.822Z,42.50
2022-07-29T19:11:28.178Z,42.74
2022-07-29T19:13:55.702Z,43.03
2022-07-29T19:16:23.090Z,43.15
2022-07-29T19:18:50.478Z,43.27
2022-07-29T19:21:17.908Z,43.83
2022-07-29T19:24:01.423Z,43.88
2022-07-29T19:26:36.268Z,44.40
2022-07-29T19:29:04.552Z,44.65
2022-07-29T19:31:31.958Z,44.76
2022-07-29T19:33:59.400Z,45.18
2022-07-29T19:36:27.395Z,45.36
2022-07-29T19:38:54.905Z,45.47
2022-07-29T19:41:22.326Z,45.38
2022-07-29T19:43:52.879Z,45.44
2022-07-29T19:46:22.401Z,45.86
2022-07-29T19:48:50.853Z,46.20
2022-07-29T19:51:18.312Z,46.71
2022-07-29T19:53:45.634Z,47.23
2022-07-29T19:56:13.067Z,47.35
2022-07-29T19:58:41.271Z,47.76
2022-07-29T20:01:10.490Z,48.14
2022-07-29T20:03:40.091Z,48.67
2022-07-29T20:06:08.512Z,48.82
2022-07-29T20:08:36.427Z,49.94
2022-07-29T20:11:04.015Z,50.01
2022-07-29T20:13:33.188Z,50.81
2022-07-29T20:16:01.990Z,50.84
2022-07-29T20:18:29.440Z,51.21
2022-07-29T20:20:57.586Z,51.58
2022-07-29T20:23:25.015Z,51.58
2022-07-29T20:25:52.694Z,52.41
2022-07-29T20:28:22.500Z,52.84
2022-07-29T20:30:49.877Z,53.19
2022-07-29T20:33:17.477Z,53.74
2022-07-29T20:35:44.917Z,54.09
2022-07-29T20:38:16.424Z,54.70
2022-07-29T20:40:45.686Z,54.63
2022-07-29T20:43:13.321Z,55.13
2022-07-29T20:45:40.694Z,55.22
2022-07-29T20:48:08.623Z,55.77
2022-07-29T20:50:36.015Z,55.69
2022-07-29T20:53:03.759Z,56.27
2022-07-29T20:55:32.184Z,56.27
2022-07-29T20:57:59.592Z,56.83
2022-07-29T21:00:27.057Z,56.57
2022-07-29T21:02:54.604Z,56.77
2022-07-29T21:05:22.046Z,57.27
2022-07-29T21:07:49.488Z,57.75
2022-07-29T21:10:18.359Z,57.72
2022-07-29T21:12:49.190Z,57.87
2022-07-29T21:15:17.475Z,57.91
2022-07-29T21:17:47.700Z,58.40
2022-07-29T21:20:19.143Z,58.69
2022-07-29T21:22:46.575Z,58.61
2022-07-29T21:25:13.971Z,59.09
2022-07-29T21:28:01.167Z,59.17
2022-07-29T21:30:28.517Z,59.43
2022-07-29T21:32:55.908Z,59.86
2022-07-29T21:36:06.908Z,60.02
2022-07-29T21:38:11.048Z,60.41
2022-07-29T21:40:38.810Z,60.39
2022-07-29T21:43:06.134Z,60.78
2022-07-29T21:45:33.515Z,60.99
2022-07-29T21:48:00.889Z,61.19
2022-07-29T21:50:28.245Z,61.10
2022-07-29T21:52:55.755Z,61.37
2022-07-29T21:55:23.534Z,61.68
2022-07-29T21:57:54.555Z,61.67
2022-07-29T22:00:25.511Z,61.88
2022-07-29T22:02:55.710Z,62.07
2022-07-29T22:05:23.103Z,62.20
2022-07-29T22:07:56.298Z,62.22
2022-07-29T22:10:25.908Z,62.40
2022-07-29T22:12:55.256Z,62.81
2022-07-29T22:15:23.367Z,62.79
2022-07-29T22:17:51.173Z,62.89
2022-07-29T22:20:18.846Z,62.99
2022-07-29T22:22:47.010Z,63.05
2022-07-29T22:25:14.583Z,63.50
2022-07-29T22:27:42.274Z,63.38
2022-07-29T22:30:10.320Z,63.43
2022-07-29T22:32:37.719Z,63.80
2022-07-29T22:35:05.616Z,64.09
2022-07-29T22:37:33.145Z,63.96
2022-07-29T22:40:00.651Z,64.51
2022-07-29T22:42:28.052Z,64.15
2022-07-29T22:44:55.583Z,64.32
2022-07-29T22:47:46.243Z,64.91
2022-07-29T22:50:10.522Z,64.80
2022-07-29T22:52:37.904Z,65.00
2022-07-29T22:55:06.137Z,64.92
2022-07-29T22:57:34.587Z,65.14
2022-07-29T23:00:02.543Z,65.59
2022-07-29T23:02:30.148Z,65.41
2022-07-29T23:04:57.671Z,65.80
2022-07-29T23:07:25.059Z,65.83
2022-07-29T23:09:52.559Z,66.08
2022-07-29T23:12:19.908Z,66.20
2022-07-29T23:14:47.344Z,66.32
2022-07-29T23:17:14.747Z,66.33
2022-07-29T23:19:42.132Z,66.65
2022-07-29T23:22:09.474Z,66.58
2022-07-29T23:24:36.806Z,66.47
2022-07-29T23:27:04.335Z,66.64
2022-07-29T23:29:36.576Z,67.10
2022-07-29T23:32:04.593Z,66.94
2022-07-29T23:34:31.977Z,67.10
2022-07-29T23:36:59.524Z,67.11
2022-07-29T23:39:27.100Z,67.25
2022-07-29T23:41:54.426Z,67.73
2022-07-29T23:44:21.948Z,67.59
2022-07-29T23:46:49.348Z,67.63
2022-07-29T23:49:16.831Z,67.63
2022-07-29T23:51:44.174Z,67.74
2022-07-29T23:54:11.627Z,68.00
2022-07-29T23:56:38.983Z,68.10
2022-07-29T23:59:06.346Z,68.54
